createdAt,value
2022-12-20T00:01:25.964Z,1.60
2022-12-20T00:03:55.178Z,1.35
2022-12-20T00:06:22.304Z,1.10
2022-12-20T00:08:55.064Z,1.20
2022-12-20T00:11:22.162Z,1.55
2022-12-20T00:13:49.285Z,1.25
2022-12-20T00:16:19.084Z,1.65
2022-12-20T00:18:46.125Z,0.95
2022-12-20T00:21:14.631Z,1.05
2022-12-20T00:23:41.817Z,1.10
2022-12-20T00:26:10.425Z,1.25
2022-12-20T00:28:38.759Z,0.90
2022-12-20T00:31:06.958Z,1.58
2022-12-20T05:41:46.683Z,1.52
2022-12-20T05:44:15.385Z,1.50
2022-12-20T05:46:47.963Z,1.02
2022-12-20T05:49:21.171Z,1.00
2022-12-20T05:51:51.428Z,1.10
2022-12-20T05:54:25.779Z,1.25
2022-12-20T05:57:19.718Z,1.20
2022-12-20T05:59:49.743Z,0.80
2022-12-20T06:02:21.165Z,0.80
2022-12-20T06:04:52.792Z,1.02
2022-12-20T06:07:23.439Z,1.00
2022-12-20T06:10:04.563Z,0.82
2022-12-20T06:13:22.451Z,0.80
2022-12-20T06:15:55.624Z,0.80
2022-12-20T06:18:26.561Z,1.08
2022-12-20T06:21:02.245Z,1.42
2022-12-20T06:23:35.797Z,1.17
2022-12-20T06:26:16.763Z,1.25
2022-12-20T06:29:04.803Z,1.65
2022-12-20T06:31:41.194Z,1.08
2022-12-20T06:34:09.263Z,0.93
2022-12-20T06:36:43.890Z,0.95
2022-12-20T06:39:23.723Z,1.10
2022-12-20T06:44:48.847Z,1.00
2022-12-20T06:47:16.542Z,0.80
2022-12-20T06:49:44.962Z,0.90
2022-12-20T06:52:36.327Z,1.00
2022-12-20T06:55:06.568Z,0.90
2022-12-20T06:57:38.265Z,0.93
2022-12-20T07:00:09.024Z,1.20
2022-12-20T07:02:47.522Z,1.13
2022-12-20T07:05:22.776Z,0.90
2022-12-20T07:08:01.443Z,0.73
2022-12-20T07:10:37.209Z,1.10
2022-12-20T07:13:12.339Z,0.85
2022-12-20T07:15:40.202Z,1.08
2022-12-20T07:18:14.628Z,1.00
2022-12-20T07:20:53.657Z,0.65
2022-12-20T07:26:16.405Z,0.90
2022-12-20T07:28:59.342Z,0.60
2022-12-20T07:31:29.885Z,0.80
2022-12-20T07:34:05.539Z,0.85
2022-12-20T07:36:33.419Z,0.95
2022-12-20T07:39:10.464Z,0.73
2022-12-20T07:41:43.646Z,0.75
2022-12-20T07:44:28.309Z,0.82
2022-12-20T07:47:06.689Z,0.70
2022-12-20T07:49:34.583Z,0.90
2022-12-20T07:58:04.486Z,0.63
2022-12-20T08:03:30.691Z,1.80
2022-12-20T08:06:13.049Z,1.08
2022-12-20T08:08:52.953Z,1.27
2022-12-20T08:11:23.158Z,0.75
2022-12-20T08:13:57.824Z,1.00
2022-12-20T08:16:29.322Z,1.02
2022-12-20T08:19:14.534Z,1.20
2022-12-20T08:21:44.601Z,2.17
2022-12-20T08:24:16.106Z,1.40
2022-12-20T08:26:47.711Z,1.63
2022-12-20T08:31:57.277Z,1.42
2022-12-20T08:34:40.502Z,1.23
2022-12-20T08:37:14.788Z,2.00
2022-12-20T08:39:48.564Z,1.20
2022-12-20T08:42:17.404Z,1.02
2022-12-20T08:44:55.641Z,1.10
2022-12-20T08:47:34.744Z,1.55
2022-12-20T08:50:27.365Z,1.30
2022-12-20T08:53:37.148Z,1.65
2022-12-20T08:56:37.695Z,1.20
2022-12-20T08:59:06.921Z,1.52
2022-12-20T09:01:36.242Z,1.58
2022-12-20T09:04:07.694Z,0.70
2022-12-20T09:06:44.448Z,1.00
2022-12-20T09:09:19.117Z,1.38
2022-12-20T09:11:50.891Z,1.25
2022-12-20T09:14:20.396Z,1.00
2022-12-20T09:16:53.099Z,1.88
2022-12-20T09:19:21.295Z,1.85
2022-12-20T09:22:08.733Z,1.65
2022-12-20T09:24:39.207Z,1.70
2022-12-20T09:27:11.273Z,1.33
2022-12-20T09:29:48.649Z,1.90
2022-12-20T09:32:17.749Z,1.00
2022-12-20T09:34:51.214Z,1.25
2022-12-20T09:37:29.456Z,1.13
2022-12-20T09:40:00.526Z,1.70
2022-12-20T09:42:39.134Z,1.65
2022-12-20T09:45:09.957Z,2.20
2022-12-20T09:47:41.857Z,2.20
2022-12-20T09:53:01.634Z,1.40
2022-12-20T09:55:56.213Z,2.03
2022-12-20T09:58:56.565Z,2.00
2022-12-20T10:01:45.066Z,1.70
2022-12-20T10:04:32.237Z,1.33
2022-12-20T10:07:58.541Z,1.23
2022-12-20T10:11:13.543Z,1.67
2022-12-20T10:13:45.277Z,1.00
2022-12-20T10:16:56.169Z,2.58
2022-12-20T10:23:14.142Z,1.60
2022-12-20T10:25:48.468Z,1.90
2022-12-20T10:28:19.357Z,1.98
2022-12-20T10:30:48.288Z,3.22
2022-12-20T10:33:27.390Z,2.10
2022-12-20T10:36:19.184Z,1.85
2022-12-20T10:38:53.509Z,1.63
2022-12-20T10:41:28.437Z,1.52
2022-12-20T10:44:09.027Z,1.90
2022-12-20T10:47:18.639Z,2.40
2022-12-20T10:49:51.788Z,1.75
2022-12-20T10:52:34.127Z,1.50
2022-12-20T10:55:20.593Z,1.88
2022-12-20T10:57:52.644Z,2.00
2022-12-20T11:00:38.465Z,1.75
2022-12-20T11:03:20.153Z,1.83
2022-12-20T11:06:01.229Z,2.60
2022-12-20T11:08:50.189Z,1.65
2022-12-20T11:11:27.071Z,1.88
2022-12-20T11:14:23.322Z,1.45
2022-12-20T11:17:07.260Z,1.83
2022-12-20T11:20:10.297Z,1.80
2022-12-20T11:23:15.543Z,1.38
2022-12-20T11:25:58.197Z,1.65
2022-12-20T11:28:49.605Z,1.85
2022-12-20T11:31:44.269Z,1.63
2022-12-20T11:34:34.563Z,1.75
2022-12-20T11:37:30.617Z,1.50
2022-12-20T11:40:23.871Z,1.38
2022-12-20T11:43:25.952Z,1.63
2022-12-20T11:49:18.828Z,1.10
2022-12-20T11:52:14.890Z,1.13
2022-12-20T11:54:52.040Z,1.30
2022-12-20T11:57:55.192Z,1.25
2022-12-20T12:00:32.602Z,1.33
2022-12-20T12:03:12.405Z,1.33
2022-12-20T12:08:59.011Z,3.13
2022-12-20T12:12:05.639Z,1.15
2022-12-20T12:17:58.857Z,1.20
2022-12-20T12:20:52.740Z,1.10
2022-12-20T12:23:42.556Z,1.50
2022-12-20T12:26:28.780Z,1.00
2022-12-20T12:29:11.494Z,1.10
2022-12-20T12:32:05.108Z,1.73
2022-12-20T12:34:49.373Z,1.10
2022-12-20T12:37:39.019Z,1.30
2022-12-20T12:40:27.803Z,1.48
2022-12-20T12:43:16.156Z,1.50
2022-12-20T12:46:14.014Z,1.00
2022-12-20T12:49:05.847Z,1.85
2022-12-20T12:51:58.604Z,2.08
2022-12-20T12:54:44.659Z,2.70
2022-12-20T12:57:32.383Z,2.30
2022-12-20T13:00:02.059Z,1.45
2022-12-20T13:02:39.473Z,1.60
2022-12-20T13:05:25.522Z,2.00
2022-12-20T13:07:53.769Z,1.70
2022-12-20T13:10:27.475Z,1.73
2022-12-20T13:13:05.379Z,2.20
2022-12-20T13:15:43.996Z,2.25
2022-12-20T13:18:13.810Z,1.75
2022-12-20T13:20:43.827Z,1.20
2022-12-20T13:23:19.274Z,1.80
2022-12-20T13:25:49.989Z,2.00
2022-12-20T13:28:38.869Z,1.45
2022-12-20T13:31:13.547Z,2.40
2022-12-20T13:33:55.986Z,2.92
2022-12-20T13:42:46.432Z,2.22
2022-12-20T13:45:19.007Z,1.90
2022-12-20T13:48:07.687Z,1.08
2022-12-20T13:50:50.989Z,1.17
2022-12-20T13:59:32.873Z,1.02
2022-12-20T14:05:35.958Z,1.38
2022-12-20T14:08:28.392Z,1.00
2022-12-20T14:17:22.868Z,0.90
2022-12-20T14:20:17.826Z,1.63
2022-12-20T14:23:10.209Z,1.23
2022-12-20T14:29:04.336Z,0.98
2022-12-20T14:31:41.149Z,1.10
2022-12-20T14:34:11.083Z,0.80
2022-12-20T14:36:44.970Z,0.82
2022-12-20T14:39:34.244Z,0.88
2022-12-20T14:42:13.448Z,0.77
2022-12-20T14:44:40.911Z,0.75
2022-12-20T14:47:26.857Z,1.15
2022-12-20T14:50:00.669Z,0.90
2022-12-20T14:52:40.183Z,0.90
2022-12-20T14:55:40.501Z,1.20
2022-12-20T14:58:25.769Z,1.55
2022-12-20T15:00:59.984Z,1.52
2022-12-20T15:03:28.686Z,0.80
2022-12-20T15:05:59.918Z,1.42
2022-12-20T15:08:34.610Z,1.30
2022-12-20T15:11:10.709Z,0.90
2022-12-20T15:13:40.412Z,1.35
2022-12-20T15:16:28.172Z,1.00
2022-12-20T15:19:00.146Z,1.42
2022-12-20T15:21:35.728Z,1.10
2022-12-20T15:24:09.273Z,1.60
2022-12-20T15:26:37.312Z,1.63
2022-12-20T15:29:04.881Z,2.45
2022-12-20T15:31:34.968Z,3.05
2022-12-20T15:34:33.606Z,2.25
2022-12-20T15:37:02.444Z,3.08
2022-12-20T15:39:31.029Z,3.60
2022-12-20T15:42:01.724Z,2.38
2022-12-20T15:44:30.513Z,1.85
2022-12-20T15:46:57.628Z,2.30
2022-12-20T15:49:29.629Z,1.27
2022-12-20T15:51:56.728Z,1.58
2022-12-20T15:54:29.561Z,1.38
2022-12-20T15:57:03.257Z,1.27
2022-12-20T16:02:24.393Z,1.50
2022-12-20T16:04:52.779Z,1.27
2022-12-20T16:07:20.279Z,1.48
2022-12-20T16:09:47.452Z,1.60
2022-12-20T16:12:21.382Z,1.23
2022-12-20T16:14:48.504Z,2.55
2022-12-20T16:17:16.060Z,1.83
2022-12-20T16:19:43.866Z,1.35
2022-12-20T16:22:16.648Z,1.63
2022-12-20T16:24:45.230Z,1.77
2022-12-20T16:27:12.624Z,1.65
2022-12-20T16:29:41.438Z,1.67
2022-12-20T16:32:19.913Z,1.40
2022-12-20T16:34:48.709Z,1.92
2022-12-20T16:37:16.074Z,1.70
2022-12-20T16:39:43.203Z,1.70
2022-12-20T16:42:16.310Z,1.95
2022-12-20T16:44:45.789Z,2.10
2022-12-20T16:47:14.198Z,1.65
2022-12-20T16:49:47.344Z,2.22
2022-12-20T16:52:19.064Z,1.50
2022-12-20T16:54:46.007Z,2.15
2022-12-20T16:57:12.995Z,2.63
2022-12-20T16:59:39.941Z,2.45
2022-12-20T17:02:21.984Z,1.85
2022-12-20T17:04:49.018Z,2.30
2022-12-20T17:07:16.435Z,2.17
2022-12-20T17:09:43.373Z,2.60
2022-12-20T17:12:15.672Z,2.28
2022-12-20T17:14:42.761Z,2.25
2022-12-20T17:17:09.791Z,2.55
2022-12-20T17:19:37.265Z,2.63
2022-12-20T17:24:48.791Z,2.75
2022-12-20T17:27:15.747Z,3.53
2022-12-20T17:29:42.742Z,3.28
2022-12-20T17:32:21.957Z,3.33
2022-12-20T17:34:49.144Z,3.30
2022-12-20T17:37:18.127Z,3.35
2022-12-20T17:39:45.211Z,3.85
2022-12-20T17:42:14.013Z,3.67
2022-12-20T17:44:41.007Z,2.17
2022-12-20T17:47:07.980Z,2.97
2022-12-20T17:49:35.010Z,2.20
2022-12-20T17:52:01.975Z,2.70
2022-12-20T17:54:34.884Z,2.30
2022-12-20T17:57:03.756Z,2.30
2022-12-20T17:59:30.839Z,2.95
2022-12-20T18:01:58.124Z,2.70
2022-12-20T18:04:26.826Z,3.00
2022-12-20T18:06:54.059Z,2.97
2022-12-20T18:09:22.031Z,2.30
2022-12-20T18:11:49.106Z,2.70
2022-12-20T18:14:17.100Z,3.72
2022-12-20T18:16:44.262Z,2.67
2022-12-20T18:19:17.251Z,2.45
2022-12-20T18:21:45.091Z,3.03
2022-12-20T18:24:14.687Z,3.08
2022-12-20T18:26:42.557Z,2.95
2022-12-20T18:29:10.783Z,3.13
2022-12-20T18:31:38.173Z,3.78
2022-12-20T18:34:05.452Z,2.83
2022-12-20T18:36:34.993Z,3.13
2022-12-20T18:39:05.001Z,3.00
2022-12-20T18:41:32.381Z,2.92
2022-12-20T18:44:01.873Z,4.05
2022-12-20T18:46:29.945Z,2.50
2022-12-20T18:48:59.007Z,3.00
2022-12-20T18:51:32.938Z,3.15
2022-12-20T18:54:00.288Z,5.60
2022-12-20T18:56:29.922Z,2.90
2022-12-20T18:58:59.789Z,3.03
2022-12-20T19:01:33.687Z,3.50
2022-12-20T19:04:03.411Z,3.30
2022-12-20T19:06:31.848Z,4.18
2022-12-20T19:09:08.873Z,3.53
2022-12-20T19:11:36.549Z,3.80
2022-12-20T19:14:03.749Z,3.72
2022-12-20T19:16:32.783Z,4.65
2022-12-20T19:19:02.092Z,4.10
2022-12-20T19:21:31.306Z,4.30
2022-12-20T19:24:01.271Z,4.05
2022-12-20T19:26:29.816Z,4.50
2022-12-20T19:28:57.690Z,4.78
2022-12-20T19:31:27.454Z,4.13
2022-12-20T19:33:57.191Z,4.22
2022-12-20T19:36:27.445Z,4.80
2022-12-20T19:38:56.964Z,4.97
2022-12-20T19:41:26.295Z,5.70
2022-12-20T19:43:53.407Z,4.70
2022-12-20T19:46:27.930Z,4.95
2022-12-20T19:48:56.255Z,5.25
2022-12-20T19:51:23.586Z,5.40
2022-12-20T19:53:53.256Z,5.80
2022-12-20T19:56:23.071Z,5.10
2022-12-20T19:58:50.277Z,4.38
2022-12-20T20:01:18.425Z,5.78
2022-12-20T20:03:46.042Z,6.25
2022-12-20T20:06:13.277Z,5.05
2022-12-20T20:08:41.091Z,4.28
2022-12-20T20:11:10.155Z,4.90
2022-12-20T20:13:38.521Z,5.68
2022-12-20T20:16:06.876Z,5.28
2022-12-20T20:18:35.915Z,5.88
2022-12-20T20:21:09.750Z,5.38
2022-12-20T20:23:37.793Z,4.63
2022-12-20T20:26:10.193Z,4.80
2022-12-20T20:28:44.422Z,4.82
2022-12-20T20:31:15.084Z,6.13
2022-12-20T20:33:44.566Z,7.88
2022-12-20T20:36:16.872Z,5.45
2022-12-20T20:38:46.038Z,6.10
2022-12-20T20:41:14.434Z,6.22
2022-12-20T20:43:44.739Z,6.38
2022-12-20T20:46:14.501Z,5.95
2022-12-20T20:48:42.757Z,5.80
2022-12-20T20:51:10.884Z,5.70
2022-12-20T20:53:37.840Z,5.07
2022-12-20T20:56:06.722Z,5.78
2022-12-20T20:58:34.529Z,4.30
2022-12-20T21:01:04.193Z,4.93
2022-12-20T21:03:36.033Z,5.13
2022-12-20T21:08:59.536Z,5.80
2022-12-20T21:11:28.081Z,5.28
2022-12-20T21:13:56.158Z,6.50
2022-12-20T21:16:24.520Z,5.20
2022-12-20T21:18:52.843Z,5.07
2022-12-20T21:21:21.044Z,5.07
2022-12-20T21:23:48.659Z,4.85
2022-12-20T21:26:19.754Z,5.15
2022-12-20T21:28:47.900Z,5.82
2022-12-20T21:31:17.471Z,6.13
2022-12-20T21:33:46.271Z,6.57
2022-12-20T21:36:15.746Z,6.03
2022-12-20T21:38:47.193Z,6.03
2022-12-20T21:41:16.595Z,6.13
2022-12-20T21:43:47.044Z,5.53
2022-12-20T21:46:14.265Z,5.82
2022-12-20T21:48:43.473Z,5.88
2022-12-20T21:51:16.979Z,6.30
2022-12-20T21:53:52.547Z,6.55
2022-12-20T21:56:21.335Z,6.03
2022-12-20T21:58:49.109Z,6.57
2022-12-20T22:01:19.743Z,7.72
2022-12-20T22:03:50.617Z,7.75
2022-12-20T22:06:18.779Z,6.45
2022-12-20T22:08:52.319Z,5.60
2022-12-20T22:11:19.969Z,7.30
2022-12-20T22:13:47.638Z,6.78
2022-12-20T22:16:25.448Z,6.93
2022-12-20T22:18:54.854Z,6.68
2022-12-20T22:21:24.281Z,6.72
2022-12-20T22:23:51.355Z,6.78
2022-12-20T22:26:22.008Z,8.18
2022-12-20T22:28:54.807Z,7.95
2022-12-20T22:31:24.205Z,7.93
2022-12-20T22:33:53.040Z,7.18
2022-12-20T22:36:20.027Z,6.40
2022-12-20T22:38:48.284Z,7.35
2022-12-20T22:41:18.313Z,6.90
2022-12-20T22:43:46.869Z,8.60
2022-12-20T22:46:17.080Z,7.25
2022-12-20T22:48:44.948Z,7.53
2022-12-20T22:51:14.801Z,8.20
2022-12-20T22:53:42.885Z,8.15
2022-12-20T22:56:10.807Z,7.30
2022-12-20T22:58:38.790Z,7.20
2022-12-20T23:01:08.489Z,7.50
2022-12-20T23:03:37.163Z,8.80
2022-12-20T23:06:06.147Z,7.78
2022-12-20T23:08:35.386Z,8.27
2022-12-20T23:11:22.775Z,7.13
2022-12-20T23:14:10.605Z,8.77
2022-12-20T23:16:38.399Z,7.47
2022-12-20T23:19:05.479Z,9.02
2022-12-20T23:21:50.704Z,9.05
2022-12-20T23:24:17.727Z,8.00
2022-12-20T23:26:44.919Z,9.93
2022-12-20T23:29:14.247Z,9.55
2022-12-20T23:31:41.484Z,8.35
2022-12-20T23:34:10.544Z,8.38
2022-12-20T23:36:37.574Z,7.28
2022-12-20T23:39:05.239Z,7.82
2022-12-20T23:41:32.311Z,7.25
2022-12-20T23:43:59.354Z,7.70
2022-12-20T23:46:26.767Z,7.90
2022-12-20T23:48:54.120Z,7.07
2022-12-20T23:51:21.887Z,7.47
2022-12-20T23:53:50.895Z,7.47
2022-12-20T23:56:20.638Z,8.40
2022-12-20T23:58:52.255Z,8.77
